sensor_id;sensor_type;location;lat;lon;timestamp;temperature;humidity
12874;DHT22;6505;51.114;13.128;2023-06-10T00:00:05;24.60;54.50
12874;DHT22;6505;51.114;13.128;2023-06-10T00:02:41;24.60;54.80
12874;DHT22;6505;51.114;13.128;2023-06-10T00:05:11;24.60;54.80
12874;DHT22;6505;51.114;13.128;2023-06-10T00:07:40;24.50;54.80
12874;DHT22;6505;51.114;13.128;2023-06-10T00:10:08;24.60;54.70
12874;DHT22;6505;51.114;13.128;2023-06-10T00:12:37;24.50;54.30
12874;DHT22;6505;51.114;13.128;2023-06-10T00:15:06;24.50;54.50
12874;DHT22;6505;51.114;13.128;2023-06-10T00:17:35;24.50;54.40
12874;DHT22;6505;51.114;13.128;2023-06-10T00:20:07;24.40;54.40
12874;DHT22;6505;51.114;13.128;2023-06-10T00:22:40;24.50;54.20
12874;DHT22;6505;51.114;13.128;2023-06-10T00:25:12;24.40;54.30
12874;DHT22;6505;51.114;13.128;2023-06-10T00:27:40;24.50;54.30
12874;DHT22;6505;51.114;13.128;2023-06-10T00:30:09;24.40;54.20
12874;DHT22;6505;51.114;13.128;2023-06-10T00:32:38;24.40;54.50
12874;DHT22;6505;51.114;13.128;2023-06-10T00:35:07;24.30;54.50
12874;DHT22;6505;51.114;13.128;2023-06-10T00:37:35;24.30;54.50
12874;DHT22;6505;51.114;13.128;2023-06-10T00:40:06;24.30;54.50
12874;DHT22;6505;51.114;13.128;2023-06-10T00:42:35;24.30;54.60
12874;DHT22;6505;51.114;13.128;2023-06-10T00:45:05;24.20;54.20
12874;DHT22;6505;51.114;13.128;2023-06-10T00:47:35;24.20;54.80
12874;DHT22;6505;51.114;13.128;2023-06-10T00:50:05;24.20;55.00
12874;DHT22;6505;51.114;13.128;2023-06-10T00:52:35;24.20;55.40
12874;DHT22;6505;51.114;13.128;2023-06-10T00:55:05;24.20;55.40
12874;DHT22;6505;51.114;13.128;2023-06-10T00:57:35;24.20;55.50
12874;DHT22;6505;51.114;13.128;2023-06-10T01:00:06;24.20;55.40
12874;DHT22;6505;51.114;13.128;2023-06-10T01:02:36;24.10;55.10
12874;DHT22;6505;51.114;13.128;2023-06-10T01:05:05;24.10;55.30
12874;DHT22;6505;51.114;13.128;2023-06-10T01:07:37;24.10;55.10
12874;DHT22;6505;51.114;13.128;2023-06-10T01:10:14;24.10;54.90
12874;DHT22;6505;51.114;13.128;2023-06-10T01:12:57;24.00;54.50
12874;DHT22;6505;51.114;13.128;2023-06-10T01:15:30;24.00;54.60
12874;DHT22;6505;51.114;13.128;2023-06-10T01:18:00;24.00;55.50
12874;DHT22;6505;51.114;13.128;2023-06-10T01:20:32;24.00;54.50
12874;DHT22;6505;51.114;13.128;2023-06-10T01:23:02;24.00;54.50
12874;DHT22;6505;51.114;13.128;2023-06-10T01:25:30;23.90;54.20
12874;DHT22;6505;51.114;13.128;2023-06-10T01:28:11;23.90;54.10
12874;DHT22;6505;51.114;13.128;2023-06-10T01:30:48;23.90;54.10
12874;DHT22;6505;51.114;13.128;2023-06-10T01:33:27;23.80;53.80
12874;DHT22;6505;51.114;13.128;2023-06-10T01:35:57;23.80;54.50
12874;DHT22;6505;51.114;13.128;2023-06-10T01:38:32;23.80;53.80
12874;DHT22;6505;51.114;13.128;2023-06-10T01:41:01;23.80;53.80
12874;DHT22;6505;51.114;13.128;2023-06-10T01:43:33;23.70;53.60
12874;DHT22;6505;51.114;13.128;2023-06-10T01:46:01;23.80;53.70
12874;DHT22;6505;51.114;13.128;2023-06-10T01:48:29;23.60;53.50
12874;DHT22;6505;51.114;13.128;2023-06-10T01:50:57;23.70;53.70
12874;DHT22;6505;51.114;13.128;2023-06-10T01:53:25;23.60;53.60
12874;DHT22;6505;51.114;13.128;2023-06-10T01:55:55;23.60;53.60
12874;DHT22;6505;51.114;13.128;2023-06-10T01:58:23;23.60;53.70
12874;DHT22;6505;51.114;13.128;2023-06-10T02:00:51;23.50;53.70
12874;DHT22;6505;51.114;13.128;2023-06-10T02:03:19;23.50;53.90
12874;DHT22;6505;51.114;13.128;2023-06-10T02:05:48;23.50;53.80
12874;DHT22;6505;51.114;13.128;2023-06-10T02:08:16;23.40;53.70
12874;DHT22;6505;51.114;13.128;2023-06-10T02:10:46;23.40;53.80
12874;DHT22;6505;51.114;13.128;2023-06-10T02:13:13;23.40;53.70
12874;DHT22;6505;51.114;13.128;2023-06-10T02:15:42;23.40;53.60
12874;DHT22;6505;51.114;13.128;2023-06-10T02:18:10;23.40;53.80
12874;DHT22;6505;51.114;13.128;2023-06-10T02:20:39;23.30;53.60
12874;DHT22;6505;51.114;13.128;2023-06-10T02:23:07;23.30;53.50
12874;DHT22;6505;51.114;13.128;2023-06-10T02:25:35;23.30;53.50
12874;DHT22;6505;51.114;13.128;2023-06-10T02:28:04;23.20;53.40
12874;DHT22;6505;51.114;13.128;2023-06-10T02:30:33;23.20;53.50
12874;DHT22;6505;51.114;13.128;2023-06-10T02:33:01;23.20;53.50
12874;DHT22;6505;51.114;13.128;2023-06-10T02:35:29;23.20;53.50
12874;DHT22;6505;51.114;13.128;2023-06-10T02:37:57;23.10;53.40
12874;DHT22;6505;51.114;13.128;2023-06-10T02:40:25;23.10;53.40
12874;DHT22;6505;51.114;13.128;2023-06-10T02:42:53;23.10;53.40
12874;DHT22;6505;51.114;13.128;2023-06-10T02:45:22;23.10;53.50
12874;DHT22;6505;51.114;13.128;2023-06-10T02:47:51;23.10;53.70
12874;DHT22;6505;51.114;13.128;2023-06-10T02:50:19;23.00;54.20
12874;DHT22;6505;51.114;13.128;2023-06-10T02:53:01;23.00;53.70
12874;DHT22;6505;51.114;13.128;2023-06-10T02:55:30;22.90;53.60
12874;DHT22;6505;51.114;13.128;2023-06-10T02:58:03;22.90;53.60
12874;DHT22;6505;51.114;13.128;2023-06-10T03:00:33;22.90;53.60
12874;DHT22;6505;51.114;13.128;2023-06-10T03:03:02;22.90;53.70
12874;DHT22;6505;51.114;13.128;2023-06-10T03:05:38;22.90;53.60
12874;DHT22;6505;51.114;13.128;2023-06-10T03:08:07;22.80;53.90
12874;DHT22;6505;51.114;13.128;2023-06-10T03:10:37;22.80;53.60
12874;DHT22;6505;51.114;13.128;2023-06-10T03:13:06;22.80;53.70
12874;DHT22;6505;51.114;13.128;2023-06-10T03:15:37;22.80;53.70
12874;DHT22;6505;51.114;13.128;2023-06-10T03:18:10;22.80;53.70
12874;DHT22;6505;51.114;13.128;2023-06-10T03:20:38;22.70;53.70
12874;DHT22;6505;51.114;13.128;2023-06-10T03:23:09;22.70;53.70
12874;DHT22;6505;51.114;13.128;2023-06-10T03:25:37;22.70;53.90
12874;DHT22;6505;51.114;13.128;2023-06-10T03:28:05;22.70;54.10
12874;DHT22;6505;51.114;13.128;2023-06-10T03:30:35;22.60;54.10
12874;DHT22;6505;51.114;13.128;2023-06-10T03:33:05;22.70;54.30
12874;DHT22;6505;51.114;13.128;2023-06-10T03:35:33;22.70;54.50
12874;DHT22;6505;51.114;13.128;2023-06-10T03:38:02;22.70;54.40
12874;DHT22;6505;51.114;13.128;2023-06-10T03:40:30;22.70;54.50
12874;DHT22;6505;51.114;13.128;2023-06-10T03:43:00;22.70;54.50
12874;DHT22;6505;51.114;13.128;2023-06-10T03:45:30;22.70;54.50
12874;DHT22;6505;51.114;13.128;2023-06-10T03:47:59;22.80;54.50
12874;DHT22;6505;51.114;13.128;2023-06-10T03:50:40;22.70;54.60
12874;DHT22;6505;51.114;13.128;2023-06-10T03:53:08;22.70;54.50
12874;DHT22;6505;51.114;13.128;2023-06-10T03:55:39;22.70;54.30
12874;DHT22;6505;51.114;13.128;2023-06-10T03:58:08;22.70;54.40
12874;DHT22;6505;51.114;13.128;2023-06-10T04:00:36;22.70;54.50
12874;DHT22;6505;51.114;13.128;2023-06-10T04:03:08;22.70;54.60
12874;DHT22;6505;51.114;13.128;2023-06-10T04:05:46;22.70;54.80
12874;DHT22;6505;51.114;13.128;2023-06-10T04:08:14;22.70;54.90
12874;DHT22;6505;51.114;13.128;2023-06-10T04:10:42;22.70;55.00
12874;DHT22;6505;51.114;13.128;2023-06-10T04:13:10;22.70;55.10
12874;DHT22;6505;51.114;13.128;2023-06-10T04:15:45;22.70;55.30
12874;DHT22;6505;51.114;13.128;2023-06-10T04:18:16;22.70;55.70
12874;DHT22;6505;51.114;13.128;2023-06-10T04:20:46;22.70;55.70
12874;DHT22;6505;51.114;13.128;2023-06-10T04:23:15;22.70;55.60
12874;DHT22;6505;51.114;13.128;2023-06-10T04:25:45;22.70;56.00
12874;DHT22;6505;51.114;13.128;2023-06-10T04:28:13;22.80;56.00
12874;DHT22;6505;51.114;13.128;2023-06-10T04:30:43;22.70;56.10
12874;DHT22;6505;51.114;13.128;2023-06-10T04:33:13;22.80;56.40
12874;DHT22;6505;51.114;13.128;2023-06-10T04:35:41;22.80;56.70
12874;DHT22;6505;51.114;13.128;2023-06-10T04:38:13;22.80;56.70
12874;DHT22;6505;51.114;13.128;2023-06-10T04:40:42;22.80;56.70
12874;DHT22;6505;51.114;13.128;2023-06-10T04:43:12;22.90;56.90
12874;DHT22;6505;51.114;13.128;2023-06-10T04:45:42;22.90;58.30
12874;DHT22;6505;51.114;13.128;2023-06-10T04:48:12;22.90;57.40
12874;DHT22;6505;51.114;13.128;2023-06-10T04:50:40;22.90;57.60
12874;DHT22;6505;51.114;13.128;2023-06-10T04:53:09;23.00;57.90
12874;DHT22;6505;51.114;13.128;2023-06-10T04:55:41;23.00;57.90
12874;DHT22;6505;51.114;13.128;2023-06-10T04:58:09;23.10;58.20
12874;DHT22;6505;51.114;13.128;2023-06-10T05:00:37;23.10;58.20
12874;DHT22;6505;51.114;13.128;2023-06-10T05:03:05;23.10;58.20
12874;DHT22;6505;51.114;13.128;2023-06-10T05:05:33;23.10;58.10
12874;DHT22;6505;51.114;13.128;2023-06-10T05:08:01;23.30;58.50
12874;DHT22;6505;51.114;13.128;2023-06-10T05:10:33;23.30;58.40
12874;DHT22;6505;51.114;13.128;2023-06-10T05:13:03;23.30;58.50
12874;DHT22;6505;51.114;13.128;2023-06-10T05:15:31;23.40;58.80
12874;DHT22;6505;51.114;13.128;2023-06-10T05:17:59;23.40;58.80
12874;DHT22;6505;51.114;13.128;2023-06-10T05:20:29;23.50;59.00
12874;DHT22;6505;51.114;13.128;2023-06-10T05:22:57;23.40;59.00
12874;DHT22;6505;51.114;13.128;2023-06-10T05:25:26;23.50;60.00
12874;DHT22;6505;51.114;13.128;2023-06-10T05:27:57;23.50;59.20
12874;DHT22;6505;51.114;13.128;2023-06-10T05:30:27;23.60;59.10
12874;DHT22;6505;51.114;13.128;2023-06-10T05:32:55;23.70;59.30
12874;DHT22;6505;51.114;13.128;2023-06-10T05:35:24;23.70;59.20
12874;DHT22;6505;51.114;13.128;2023-06-10T05:37:52;23.70;59.30
12874;DHT22;6505;51.114;13.128;2023-06-10T05:40:20;23.70;59.20
12874;DHT22;6505;51.114;13.128;2023-06-10T05:42:48;23.80;59.30
12874;DHT22;6505;51.114;13.128;2023-06-10T05:45:16;23.80;59.40
12874;DHT22;6505;51.114;13.128;2023-06-10T05:47:45;23.90;59.70
12874;DHT22;6505;51.114;13.128;2023-06-10T05:50:13;23.90;59.80
12874;DHT22;6505;51.114;13.128;2023-06-10T05:52:41;23.90;60.00
12874;DHT22;6505;51.114;13.128;2023-06-10T05:55:10;24.00;59.80
12874;DHT22;6505;51.114;13.128;2023-06-10T05:57:38;24.00;59.80
12874;DHT22;6505;51.114;13.128;2023-06-10T06:00:09;24.10;60.00
12874;DHT22;6505;51.114;13.128;2023-06-10T06:02:38;24.10;60.00
12874;DHT22;6505;51.114;13.128;2023-06-10T06:05:07;24.20;60.40
12874;DHT22;6505;51.114;13.128;2023-06-10T06:07:36;24.20;60.40
12874;DHT22;6505;51.114;13.128;2023-06-10T06:10:05;24.30;60.40
12874;DHT22;6505;51.114;13.128;2023-06-10T06:12:34;24.30;60.40
12874;DHT22;6505;51.114;13.128;2023-06-10T06:15:02;24.40;60.30
12874;DHT22;6505;51.114;13.128;2023-06-10T06:17:31;24.40;60.50
12874;DHT22;6505;51.114;13.128;2023-06-10T06:19:59;24.50;60.80
12874;DHT22;6505;51.114;13.128;2023-06-10T06:22:28;24.60;60.70
12874;DHT22;6505;51.114;13.128;2023-06-10T06:24:56;24.60;61.00
12874;DHT22;6505;51.114;13.128;2023-06-10T06:27:24;24.80;60.80
12874;DHT22;6505;51.114;13.128;2023-06-10T06:29:52;24.80;60.90
12874;DHT22;6505;51.114;13.128;2023-06-10T06:32:21;24.90;60.90
12874;DHT22;6505;51.114;13.128;2023-06-10T06:34:51;25.00;60.80
12874;DHT22;6505;51.114;13.128;2023-06-10T06:37:21;25.00;60.80
12874;DHT22;6505;51.114;13.128;2023-06-10T06:39:58;25.10;60.70
12874;DHT22;6505;51.114;13.128;2023-06-10T06:42:29;25.20;60.80
12874;DHT22;6505;51.114;13.128;2023-06-10T06:45:03;25.20;60.80
12874;DHT22;6505;51.114;13.128;2023-06-10T06:47:32;25.30;60.80
12874;DHT22;6505;51.114;13.128;2023-06-10T06:50:00;25.50;60.50
12874;DHT22;6505;51.114;13.128;2023-06-10T06:52:29;25.50;60.40
12874;DHT22;6505;51.114;13.128;2023-06-10T06:54:58;25.60;59.90
12874;DHT22;6505;51.114;13.128;2023-06-10T06:57:26;25.60;59.80
12874;DHT22;6505;51.114;13.128;2023-06-10T06:59:54;25.70;59.60
12874;DHT22;6505;51.114;13.128;2023-06-10T07:02:22;25.70;59.10
12874;DHT22;6505;51.114;13.128;2023-06-10T07:04:50;25.80;59.10
12874;DHT22;6505;51.114;13.128;2023-06-10T07:07:22;25.90;59.10
12874;DHT22;6505;51.114;13.128;2023-06-10T07:09:50;26.00;59.10
12874;DHT22;6505;51.114;13.128;2023-06-10T07:12:19;26.00;58.90
12874;DHT22;6505;51.114;13.128;2023-06-10T07:14:50;26.10;59.00
12874;DHT22;6505;51.114;13.128;2023-06-10T07:17:18;26.20;58.90
12874;DHT22;6505;51.114;13.128;2023-06-10T07:19:46;26.20;58.50
12874;DHT22;6505;51.114;13.128;2023-06-10T07:22:15;26.30;58.60
12874;DHT22;6505;51.114;13.128;2023-06-10T07:24:43;26.40;58.50
12874;DHT22;6505;51.114;13.128;2023-06-10T07:27:27;26.40;58.50
12874;DHT22;6505;51.114;13.128;2023-06-10T07:29:55;26.50;57.90
12874;DHT22;6505;51.114;13.128;2023-06-10T07:32:23;26.60;57.00
12874;DHT22;6505;51.114;13.128;2023-06-10T07:34:51;26.60;57.20
12874;DHT22;6505;51.114;13.128;2023-06-10T07:37:20;26.70;56.90
12874;DHT22;6505;51.114;13.128;2023-06-10T07:39:47;26.70;56.90
12874;DHT22;6505;51.114;13.128;2023-06-10T07:42:15;26.80;56.90
12874;DHT22;6505;51.114;13.128;2023-06-10T07:44:45;26.90;56.70
12874;DHT22;6505;51.114;13.128;2023-06-10T07:47:13;27.00;57.00
12874;DHT22;6505;51.114;13.128;2023-06-10T07:49:41;27.10;56.60
12874;DHT22;6505;51.114;13.128;2023-06-10T07:52:09;27.10;56.10
12874;DHT22;6505;51.114;13.128;2023-06-10T07:54:37;27.20;55.60
12874;DHT22;6505;51.114;13.128;2023-06-10T07:57:06;27.30;55.50
12874;DHT22;6505;51.114;13.128;2023-06-10T07:59:34;27.30;55.60
12874;DHT22;6505;51.114;13.128;2023-06-10T08:02:04;27.40;55.10
12874;DHT22;6505;51.114;13.128;2023-06-10T08:04:32;27.40;55.40
12874;DHT22;6505;51.114;13.128;2023-06-10T08:07:02;27.50;54.70
12874;DHT22;6505;51.114;13.128;2023-06-10T08:09:30;27.50;54.90
12874;DHT22;6505;51.114;13.128;2023-06-10T08:11:58;27.50;54.90
12874;DHT22;6505;51.114;13.128;2023-06-10T08:14:26;27.60;55.20
12874;DHT22;6505;51.114;13.128;2023-06-10T08:16:54;27.60;54.90
12874;DHT22;6505;51.114;13.128;2023-06-10T08:19:24;27.70;54.70
12874;DHT22;6505;51.114;13.128;2023-06-10T08:21:52;27.80;54.90
12874;DHT22;6505;51.114;13.128;2023-06-10T08:24:20;27.90;54.50
12874;DHT22;6505;51.114;13.128;2023-06-10T08:26:48;27.90;54.30
12874;DHT22;6505;51.114;13.128;2023-06-10T08:29:16;28.00;54.50
12874;DHT22;6505;51.114;13.128;2023-06-10T08:31:44;28.10;54.00
12874;DHT22;6505;51.114;13.128;2023-06-10T08:34:12;28.10;53.80
12874;DHT22;6505;51.114;13.128;2023-06-10T08:36:43;28.20;53.70
12874;DHT22;6505;51.114;13.128;2023-06-10T08:39:11;28.20;53.70
12874;DHT22;6505;51.114;13.128;2023-06-10T08:41:43;28.20;53.50
12874;DHT22;6505;51.114;13.128;2023-06-10T08:44:17;28.30;53.60
12874;DHT22;6505;51.114;13.128;2023-06-10T08:46:50;28.30;53.60
12874;DHT22;6505;51.114;13.128;2023-06-10T08:49:20;28.40;53.60
12874;DHT22;6505;51.114;13.128;2023-06-10T08:51:57;28.40;53.20
12874;DHT22;6505;51.114;13.128;2023-06-10T08:54:30;28.40;53.00
12874;DHT22;6505;51.114;13.128;2023-06-10T08:57:00;28.50;53.20
12874;DHT22;6505;51.114;13.128;2023-06-10T08:59:32;28.50;53.10
12874;DHT22;6505;51.114;13.128;2023-06-10T09:02:02;28.50;52.60
12874;DHT22;6505;51.114;13.128;2023-06-10T09:04:32;28.50;52.50
12874;DHT22;6505;51.114;13.128;2023-06-10T09:07:02;28.50;52.50
12874;DHT22;6505;51.114;13.128;2023-06-10T09:09:32;28.50;51.80
12874;DHT22;6505;51.114;13.128;2023-06-10T09:12:03;28.60;52.20
12874;DHT22;6505;51.114;13.128;2023-06-10T09:14:31;28.60;52.10
12874;DHT22;6505;51.114;13.128;2023-06-10T09:17:00;28.60;51.80
12874;DHT22;6505;51.114;13.128;2023-06-10T09:19:29;28.60;51.80
12874;DHT22;6505;51.114;13.128;2023-06-10T09:21:57;28.70;52.00
12874;DHT22;6505;51.114;13.128;2023-06-10T09:24:27;28.70;51.70
12874;DHT22;6505;51.114;13.128;2023-06-10T09:27:03;28.70;51.90
12874;DHT22;6505;51.114;13.128;2023-06-10T09:29:32;28.70;51.90
12874;DHT22;6505;51.114;13.128;2023-06-10T09:32:01;28.70;52.00
12874;DHT22;6505;51.114;13.128;2023-06-10T09:34:29;28.80;51.80
12874;DHT22;6505;51.114;13.128;2023-06-10T09:36:58;28.70;51.30
12874;DHT22;6505;51.114;13.128;2023-06-10T09:39:27;28.80;51.10
12874;DHT22;6505;51.114;13.128;2023-06-10T09:41:55;28.70;51.50
12874;DHT22;6505;51.114;13.128;2023-06-10T09:44:23;28.70;51.10
12874;DHT22;6505;51.114;13.128;2023-06-10T09:46:52;28.70;51.30
12874;DHT22;6505;51.114;13.128;2023-06-10T09:49:21;28.70;51.30
12874;DHT22;6505;51.114;13.128;2023-06-10T09:51:50;28.70;51.00
12874;DHT22;6505;51.114;13.128;2023-06-10T09:54:19;28.70;51.20
12874;DHT22;6505;51.114;13.128;2023-06-10T09:56:51;28.70;50.70
12874;DHT22;6505;51.114;13.128;2023-06-10T09:59:28;28.70;50.90
12874;DHT22;6505;51.114;13.128;2023-06-10T10:01:58;28.70;51.00
12874;DHT22;6505;51.114;13.128;2023-06-10T10:04:27;28.70;50.80
12874;DHT22;6505;51.114;13.128;2023-06-10T10:06:56;28.70;49.70
12874;DHT22;6505;51.114;13.128;2023-06-10T10:09:26;28.70;49.30
12874;DHT22;6505;51.114;13.128;2023-06-10T10:11:55;28.70;48.80
12874;DHT22;6505;51.114;13.128;2023-06-10T10:14:25;28.70;48.60
12874;DHT22;6505;51.114;13.128;2023-06-10T10:16:56;28.70;48.60
12874;DHT22;6505;51.114;13.128;2023-06-10T10:19:28;28.70;47.80
12874;DHT22;6505;51.114;13.128;2023-06-10T10:22:03;28.70;47.90
12874;DHT22;6505;51.114;13.128;2023-06-10T10:24:38;28.70;48.20
12874;DHT22;6505;51.114;13.128;2023-06-10T10:27:18;28.70;46.60
12874;DHT22;6505;51.114;13.128;2023-06-10T10:29:52;28.70;44.70
12874;DHT22;6505;51.114;13.128;2023-06-10T10:32:26;28.70;45.10
12874;DHT22;6505;51.114;13.128;2023-06-10T10:35:05;28.70;44.70
12874;DHT22;6505;51.114;13.128;2023-06-10T10:37:36;28.70;44.60
12874;DHT22;6505;51.114;13.128;2023-06-10T10:40:06;28.70;44.30
12874;DHT22;6505;51.114;13.128;2023-06-10T10:42:38;28.70;45.00
12874;DHT22;6505;51.114;13.128;2023-06-10T10:45:07;28.70;45.50
12874;DHT22;6505;51.114;13.128;2023-06-10T10:47:38;28.70;45.50
12874;DHT22;6505;51.114;13.128;2023-06-10T10:50:14;28.70;45.70
12874;DHT22;6505;51.114;13.128;2023-06-10T10:52:51;28.70;46.20
12874;DHT22;6505;51.114;13.128;2023-06-10T10:55:22;28.70;46.10
12874;DHT22;6505;51.114;13.128;2023-06-10T10:57:56;28.80;46.40
12874;DHT22;6505;51.114;13.128;2023-06-10T11:00:28;28.70;45.80
12874;DHT22;6505;51.114;13.128;2023-06-10T11:02:59;28.70;46.00
12874;DHT22;6505;51.114;13.128;2023-06-10T11:05:39;28.80;45.80
12874;DHT22;6505;51.114;13.128;2023-06-10T11:08:11;28.70;46.20
12874;DHT22;6505;51.114;13.128;2023-06-10T11:10:40;28.70;46.10
12874;DHT22;6505;51.114;13.128;2023-06-10T11:13:14;28.70;46.30
12874;DHT22;6505;51.114;13.128;2023-06-10T11:15:44;28.70;46.20
12874;DHT22;6505;51.114;13.128;2023-06-10T11:18:22;28.80;46.10
12874;DHT22;6505;51.114;13.128;2023-06-10T11:20:52;28.70;46.60
12874;DHT22;6505;51.114;13.128;2023-06-10T11:23:26;28.70;46.30
12874;DHT22;6505;51.114;13.128;2023-06-10T11:26:21;28.70;46.30
12874;DHT22;6505;51.114;13.128;2023-06-10T11:29:09;28.80;46.70
12874;DHT22;6505;51.114;13.128;2023-06-10T11:31:40;28.80;46.10
12874;DHT22;6505;51.114;13.128;2023-06-10T11:34:11;28.80;46.20
12874;DHT22;6505;51.114;13.128;2023-06-10T11:36:41;28.80;46.10
12874;DHT22;6505;51.114;13.128;2023-06-10T11:39:13;28.80;45.70
12874;DHT22;6505;51.114;13.128;2023-06-10T11:41:41;28.80;45.60
12874;DHT22;6505;51.114;13.128;2023-06-10T11:44:12;28.80;45.30
12874;DHT22;6505;51.114;13.128;2023-06-10T11:46:47;28.80;45.80
12874;DHT22;6505;51.114;13.128;2023-06-10T11:49:16;28.80;45.50
12874;DHT22;6505;51.114;13.128;2023-06-10T11:51:44;28.80;45.00
12874;DHT22;6505;51.114;13.128;2023-06-10T11:54:18;28.80;45.60
12874;DHT22;6505;51.114;13.128;2023-06-10T11:56:46;28.80;46.00
12874;DHT22;6505;51.114;13.128;2023-06-10T11:59:16;28.80;46.00
12874;DHT22;6505;51.114;13.128;2023-06-10T12:01:45;28.80;46.00
12874;DHT22;6505;51.114;13.128;2023-06-10T12:04:15;28.80;46.00
12874;DHT22;6505;51.114;13.128;2023-06-10T12:06:46;28.80;45.60
12874;DHT22;6505;51.114;13.128;2023-06-10T12:09:19;28.80;45.10
12874;DHT22;6505;51.114;13.128;2023-06-10T12:11:55;28.80;45.40
12874;DHT22;6505;51.114;13.128;2023-06-10T12:14:52;28.80;45.60
12874;DHT22;6505;51.114;13.128;2023-06-10T12:17:27;28.80;45.60
12874;DHT22;6505;51.114;13.128;2023-06-10T12:20:06;28.80;45.70
12874;DHT22;6505;51.114;13.128;2023-06-10T12:22:37;28.80;46.00
12874;DHT22;6505;51.114;13.128;2023-06-10T12:25:07;28.80;46.10
12874;DHT22;6505;51.114;13.128;2023-06-10T12:27:38;28.80;46.10
12874;DHT22;6505;51.114;13.128;2023-06-10T12:30:09;28.80;45.80
12874;DHT22;6505;51.114;13.128;2023-06-10T12:32:39;28.80;45.50
12874;DHT22;6505;51.114;13.128;2023-06-10T12:35:10;28.90;45.70
12874;DHT22;6505;51.114;13.128;2023-06-10T12:37:40;28.80;45.60
12874;DHT22;6505;51.114;13.128;2023-06-10T12:40:10;28.90;45.50
12874;DHT22;6505;51.114;13.128;2023-06-10T12:42:39;28.90;45.80
12874;DHT22;6505;51.114;13.128;2023-06-10T12:45:10;28.90;45.80
12874;DHT22;6505;51.114;13.128;2023-06-10T12:47:40;29.00;45.50
12874;DHT22;6505;51.114;13.128;2023-06-10T12:50:09;28.90;44.70
12874;DHT22;6505;51.114;13.128;2023-06-10T12:52:39;29.00;44.70
12874;DHT22;6505;51.114;13.128;2023-06-10T12:55:09;29.00;44.70
12874;DHT22;6505;51.114;13.128;2023-06-10T12:57:47;29.00;44.50
12874;DHT22;6505;51.114;13.128;2023-06-10T13:00:18;29.00;44.70
12874;DHT22;6505;51.114;13.128;2023-06-10T13:02:48;29.00;44.50
12874;DHT22;6505;51.114;13.128;2023-06-10T13:05:17;29.00;44.50
12874;DHT22;6505;51.114;13.128;2023-06-10T13:07:47;29.00;44.70
12874;DHT22;6505;51.114;13.128;2023-06-10T13:10:16;28.90;44.50
12874;DHT22;6505;51.114;13.128;2023-06-10T13:12:47;29.00;44.70
12874;DHT22;6505;51.114;13.128;2023-06-10T13:15:18;28.90;44.60
12874;DHT22;6505;51.114;13.128;2023-06-10T13:17:46;28.90;44.50
12874;DHT22;6505;51.114;13.128;2023-06-10T13:20:17;28.90;44.90
12874;DHT22;6505;51.114;13.128;2023-06-10T13:22:45;28.90;44.90
12874;DHT22;6505;51.114;13.128;2023-06-10T13:25:14;28.90;45.00
12874;DHT22;6505;51.114;13.128;2023-06-10T13:27:42;28.90;44.70
12874;DHT22;6505;51.114;13.128;2023-06-10T13:30:11;28.90;45.10
12874;DHT22;6505;51.114;13.128;2023-06-10T13:32:41;28.90;45.40
12874;DHT22;6505;51.114;13.128;2023-06-10T13:35:09;28.90;45.60
12874;DHT22;6505;51.114;13.128;2023-06-10T13:37:37;28.90;45.60
12874;DHT22;6505;51.114;13.128;2023-06-10T13:40:06;28.90;45.40
12874;DHT22;6505;51.114;13.128;2023-06-10T13:42:36;28.90;44.90
12874;DHT22;6505;51.114;13.128;2023-06-10T13:45:05;28.90;45.10
12874;DHT22;6505;51.114;13.128;2023-06-10T13:47:34;28.90;44.40
12874;DHT22;6505;51.114;13.128;2023-06-10T13:50:05;28.90;44.10
12874;DHT22;6505;51.114;13.128;2023-06-10T13:52:34;28.90;43.30
12874;DHT22;6505;51.114;13.128;2023-06-10T13:55:02;28.90;42.80
12874;DHT22;6505;51.114;13.128;2023-06-10T13:57:30;28.90;42.90
12874;DHT22;6505;51.114;13.128;2023-06-10T13:59:58;28.90;42.70
12874;DHT22;6505;51.114;13.128;2023-06-10T14:02:26;28.90;42.60
12874;DHT22;6505;51.114;13.128;2023-06-10T14:04:54;28.90;41.80
12874;DHT22;6505;51.114;13.128;2023-06-10T14:07:23;28.90;41.60
12874;DHT22;6505;51.114;13.128;2023-06-10T14:09:52;28.90;41.60
12874;DHT22;6505;51.114;13.128;2023-06-10T14:12:20;28.90;41.80
12874;DHT22;6505;51.114;13.128;2023-06-10T14:14:48;29.00;41.00
12874;DHT22;6505;51.114;13.128;2023-06-10T14:17:16;29.00;40.30
12874;DHT22;6505;51.114;13.128;2023-06-10T14:19:45;29.00;40.80
12874;DHT22;6505;51.114;13.128;2023-06-10T14:22:13;29.00;40.70
12874;DHT22;6505;51.114;13.128;2023-06-10T14:24:42;29.00;40.20
12874;DHT22;6505;51.114;13.128;2023-06-10T14:27:10;29.00;39.70
12874;DHT22;6505;51.114;13.128;2023-06-10T14:29:38;29.00;38.90
12874;DHT22;6505;51.114;13.128;2023-06-10T14:32:07;29.10;38.90
12874;DHT22;6505;51.114;13.128;2023-06-10T14:34:35;29.00;38.30
12874;DHT22;6505;51.114;13.128;2023-06-10T14:37:05;29.10;37.40
12874;DHT22;6505;51.114;13.128;2023-06-10T14:39:34;29.10;37.50
12874;DHT22;6505;51.114;13.128;2023-06-10T14:42:04;29.10;38.00
12874;DHT22;6505;51.114;13.128;2023-06-10T14:44:33;29.10;38.10
12874;DHT22;6505;51.114;13.128;2023-06-10T14:47:01;29.10;37.90
12874;DHT22;6505;51.114;13.128;2023-06-10T14:49:29;29.20;38.00
12874;DHT22;6505;51.114;13.128;2023-06-10T14:51:57;29.10;38.20
12874;DHT22;6505;51.114;13.128;2023-06-10T14:54:25;29.20;36.90
12874;DHT22;6505;51.114;13.128;2023-06-10T14:56:54;29.20;36.10
12874;DHT22;6505;51.114;13.128;2023-06-10T14:59:23;29.20;36.20
12874;DHT22;6505;51.114;13.128;2023-06-10T15:01:51;29.20;35.50
12874;DHT22;6505;51.114;13.128;2023-06-10T15:04:19;29.20;35.90
12874;DHT22;6505;51.114;13.128;2023-06-10T15:06:50;29.20;34.20
12874;DHT22;6505;51.114;13.128;2023-06-10T15:09:18;29.20;33.90
12874;DHT22;6505;51.114;13.128;2023-06-10T15:11:46;29.20;33.80
12874;DHT22;6505;51.114;13.128;2023-06-10T15:14:14;29.20;32.80
12874;DHT22;6505;51.114;13.128;2023-06-10T15:16:44;29.30;32.90
12874;DHT22;6505;51.114;13.128;2023-06-10T15:19:12;29.20;33.20
12874;DHT22;6505;51.114;13.128;2023-06-10T15:21:40;29.20;33.20
12874;DHT22;6505;51.114;13.128;2023-06-10T15:24:08;29.20;33.50
12874;DHT22;6505;51.114;13.128;2023-06-10T15:26:36;29.20;33.50
12874;DHT22;6505;51.114;13.128;2023-06-10T15:29:04;29.20;33.40
12874;DHT22;6505;51.114;13.128;2023-06-10T15:31:32;29.30;33.90
12874;DHT22;6505;51.114;13.128;2023-06-10T15:34:02;29.20;34.90
12874;DHT22;6505;51.114;13.128;2023-06-10T15:36:31;29.20;35.10
12874;DHT22;6505;51.114;13.128;2023-06-10T15:39:02;29.30;34.40
12874;DHT22;6505;51.114;13.128;2023-06-10T15:41:34;29.20;34.50
12874;DHT22;6505;51.114;13.128;2023-06-10T15:44:02;29.20;34.70
12874;DHT22;6505;51.114;13.128;2023-06-10T15:46:30;29.30;35.00